createdAt,value
2019-02-11T00:00:37.745Z,4.80
2019-02-11T00:01:37.724Z,4.86
2019-02-11T00:02:37.697Z,4.70
2019-02-11T00:03:38.581Z,4.80
2019-02-11T00:04:37.669Z,4.84
2019-02-11T00:05:37.633Z,4.80
2019-02-11T00:06:37.612Z,4.78
2019-02-11T00:07:37.585Z,4.84
2019-02-11T00:08:37.588Z,4.84
2019-02-11T00:09:37.543Z,4.78
2019-02-11T00:10:37.519Z,4.69
2019-02-11T00:11:37.501Z,4.77
2019-02-11T00:12:37.479Z,4.82
2019-02-11T00:13:37.460Z,4.75
2019-02-11T00:14:37.455Z,4.80
2019-02-11T00:15:37.410Z,4.78
2019-02-11T00:16:37.385Z,4.88
2019-02-11T00:17:37.360Z,4.86
2019-02-11T00:18:37.343Z,4.75
2019-02-11T00:19:37.316Z,4.77
2019-02-11T00:20:37.312Z,4.70
2019-02-11T00:21:37.272Z,4.78
2019-02-11T00:22:37.253Z,4.82
2019-02-11T00:23:37.234Z,4.73
2019-02-11T00:24:37.202Z,4.75
2019-02-11T00:25:37.183Z,4.73
2019-02-11T00:26:37.176Z,4.75
2019-02-11T00:27:37.136Z,4.73
2019-02-11T00:28:37.130Z,4.73
2019-02-11T00:29:37.088Z,4.63
2019-02-11T00:30:37.068Z,4.60
2019-02-11T00:31:37.045Z,4.58
2019-02-11T00:32:37.023Z,4.58
2019-02-11T00:33:37.023Z,4.60
2019-02-11T00:34:36.976Z,4.59
2019-02-11T00:35:36.956Z,4.55
2019-02-11T00:36:36.935Z,4.52
2019-02-11T00:37:36.912Z,4.69
2019-02-11T00:38:36.898Z,4.62
2019-02-11T00:39:37.562Z,4.60
2019-02-11T00:40:36.865Z,4.55
2019-02-11T00:41:36.823Z,4.55
2019-02-11T00:42:36.799Z,4.54
2019-02-11T00:43:36.773Z,4.54
2019-02-11T00:44:36.769Z,4.59
2019-02-11T00:45:36.732Z,4.54
2019-02-11T00:46:36.708Z,4.54
2019-02-11T00:47:36.709Z,4.55
2019-02-11T00:48:36.666Z,4.59
2019-02-11T00:49:36.640Z,4.62
2019-02-11T00:50:36.623Z,4.58
2019-02-11T00:51:36.598Z,4.52
2019-02-11T00:52:36.571Z,4.59
2019-02-11T00:53:36.568Z,4.55
2019-02-11T00:54:36.526Z,4.55
2019-02-11T00:55:36.500Z,4.58
2019-02-11T00:56:36.510Z,4.58
2019-02-11T00:57:36.461Z,4.59
2019-02-11T00:58:36.443Z,4.66
2019-02-11T00:59:36.438Z,4.55
2019-02-11T01:00:36.395Z,4.59
2019-02-11T01:01:36.373Z,4.60
2019-02-11T01:02:36.363Z,4.60
2019-02-11T01:03:36.332Z,4.59
2019-02-11T01:04:36.306Z,4.63
2019-02-11T01:05:36.283Z,4.58
2019-02-11T01:06:36.284Z,4.62
2019-02-11T01:07:36.250Z,4.63
2019-02-11T01:08:36.217Z,4.60
2019-02-11T01:09:36.195Z,4.60
2019-02-11T01:10:36.167Z,4.59
2019-02-11T01:11:36.159Z,4.62
2019-02-11T01:12:36.145Z,4.63
2019-02-11T01:13:36.104Z,4.65
2019-02-11T01:14:36.094Z,4.69
2019-02-11T01:15:36.060Z,4.75
2019-02-11T01:16:36.036Z,4.67
2019-02-11T01:17:36.038Z,4.73
2019-02-11T01:18:36.007Z,4.69
2019-02-11T01:19:35.971Z,4.82
2019-02-11T01:20:35.954Z,4.73
2019-02-11T01:21:35.919Z,4.82
2019-02-11T01:22:35.899Z,4.72
2019-02-11T01:23:35.879Z,4.67
2019-02-11T01:24:35.877Z,4.80
2019-02-11T01:25:36.567Z,4.69
2019-02-11T01:26:35.824Z,4.69
2019-02-11T01:27:35.791Z,4.82
2019-02-11T01:28:35.766Z,4.72
2019-02-11T01:29:35.740Z,4.82
2019-02-11T01:30:35.720Z,4.85
2019-02-11T01:31:36.570Z,4.85
2019-02-11T01:32:35.683Z,4.80
2019-02-11T01:33:35.656Z,4.80
2019-02-11T01:34:35.633Z,4.82
2019-02-11T01:35:35.610Z,4.85
2019-02-11T01:36:35.587Z,4.80
2019-02-11T01:37:35.585Z,4.82
2019-02-11T01:38:35.541Z,4.85
2019-02-11T01:39:35.520Z,4.80
2019-02-11T01:40:35.500Z,4.85
2019-02-11T01:41:35.473Z,4.82
2019-02-11T01:42:35.450Z,4.85
2019-02-11T01:43:36.278Z,4.82
2019-02-11T01:44:35.432Z,4.82
2019-02-11T01:45:35.389Z,4.78
2019-02-11T01:46:35.360Z,4.82
2019-02-11T01:47:35.343Z,4.84
2019-02-11T01:48:35.320Z,4.73
2019-02-11T01:49:35.298Z,4.88
2019-02-11T01:50:35.290Z,4.88
2019-02-11T01:51:35.252Z,4.82
2019-02-11T01:52:35.232Z,4.78
2019-02-11T01:53:35.206Z,4.73
2019-02-11T01:54:35.201Z,4.70
2019-02-11T01:55:35.174Z,4.82
2019-02-11T01:56:35.149Z,4.69
2019-02-11T01:57:35.134Z,4.66
2019-02-11T01:58:35.099Z,4.73
2019-02-11T01:59:35.088Z,4.69
2019-02-11T02:00:35.067Z,4.69
2019-02-11T02:01:35.048Z,4.66
2019-02-11T02:02:35.003Z,4.75
2019-02-11T02:03:34.986Z,4.60
2019-02-11T02:04:34.967Z,4.60
2019-02-11T02:05:34.939Z,4.70
2019-02-11T02:06:35.614Z,4.67
2019-02-11T02:07:34.901Z,4.66
2019-02-11T02:08:34.876Z,4.58
2019-02-11T02:09:34.850Z,4.62
2019-02-11T02:10:34.844Z,4.58
2019-02-11T02:11:34.804Z,4.60
2019-02-11T02:12:34.782Z,4.60
2019-02-11T02:13:34.759Z,4.63
2019-02-11T02:14:34.743Z,4.65
2019-02-11T02:15:34.727Z,4.70
2019-02-11T02:16:34.701Z,4.67
2019-02-11T02:17:34.670Z,4.66
2019-02-11T02:18:34.656Z,4.67
2019-02-11T02:19:34.625Z,4.66
2019-02-11T02:20:34.599Z,4.67
2019-02-11T02:21:34.595Z,4.78
2019-02-11T02:22:34.553Z,4.72
2019-02-11T02:23:34.537Z,4.78
2019-02-11T02:24:34.513Z,4.85
2019-02-11T02:25:34.491Z,4.73
2019-02-11T02:26:34.463Z,4.77
2019-02-11T02:27:34.466Z,4.80
2019-02-11T02:28:34.418Z,4.85
2019-02-11T02:29:34.398Z,4.77
2019-02-11T02:30:34.381Z,4.88
2019-02-11T02:31:34.350Z,4.72
2019-02-11T02:32:34.351Z,4.84
2019-02-11T02:33:34.311Z,4.88
2019-02-11T02:34:34.287Z,4.94
2019-02-11T02:35:34.263Z,4.88
2019-02-11T02:36:34.241Z,4.86
2019-02-11T02:37:34.235Z,4.99
2019-02-11T02:38:34.197Z,4.84
2019-02-11T02:39:34.176Z,4.88
2019-02-11T02:40:34.153Z,4.94
2019-02-11T02:41:34.130Z,4.91
2019-02-11T02:42:34.123Z,4.99
2019-02-11T02:43:34.085Z,4.94
2019-02-11T02:44:34.090Z,4.92
2019-02-11T02:45:34.041Z,5.00
2019-02-11T02:46:34.018Z,4.99
2019-02-11T02:47:34.015Z,4.99
2019-02-11T02:48:33.975Z,5.00
2019-02-11T02:49:33.954Z,5.02
2019-02-11T02:50:33.927Z,5.04
2019-02-11T02:51:33.906Z,5.09
2019-02-11T02:52:33.886Z,5.10
2019-02-11T02:53:33.879Z,5.09
2019-02-11T02:54:33.858Z,5.13
2019-02-11T02:55:33.817Z,4.97
2019-02-11T02:56:33.796Z,5.13
2019-02-11T02:57:33.985Z,5.12
2019-02-11T02:58:33.797Z,5.07
2019-02-11T02:59:33.731Z,5.07
2019-02-11T03:00:33.733Z,5.12
2019-02-11T03:01:33.860Z,5.03
2019-02-11T03:02:33.661Z,5.04
2019-02-11T03:03:33.639Z,5.06
2019-02-11T03:04:33.626Z,5.03
2019-02-11T03:05:33.603Z,5.10
2019-02-11T03:06:33.590Z,5.07
2019-02-11T03:07:33.549Z,5.06
2019-02-11T03:08:33.527Z,5.09
2019-02-11T03:09:33.508Z,4.97
2019-02-11T03:10:33.483Z,5.06
2019-02-11T03:11:33.460Z,5.04
2019-02-11T03:12:33.454Z,4.97
2019-02-11T03:13:33.434Z,5.07
2019-02-11T03:14:33.394Z,5.06
2019-02-11T03:15:33.371Z,5.04
2019-02-11T03:16:35.077Z,5.04
2019-02-11T03:17:33.326Z,5.12
2019-02-11T03:18:33.320Z,5.09
2019-02-11T03:19:33.299Z,5.17
2019-02-11T03:20:33.255Z,5.17
2019-02-11T03:21:33.237Z,5.33
2019-02-11T03:22:33.217Z,5.25
2019-02-11T03:23:33.192Z,5.24
2019-02-11T03:24:33.188Z,5.27
2019-02-11T03:25:33.142Z,5.22
2019-02-11T03:26:33.121Z,5.21
2019-02-11T03:27:33.107Z,5.18
2019-02-11T03:28:33.084Z,5.18
2019-02-11T03:29:33.078Z,5.12
2019-02-11T03:30:33.037Z,5.25
2019-02-11T03:31:33.016Z,5.17
2019-02-11T03:32:32.992Z,5.25
2019-02-11T03:33:32.970Z,5.27
2019-02-11T03:34:32.968Z,5.36
2019-02-11T03:35:32.932Z,5.30
2019-02-11T03:36:32.901Z,5.38
2019-02-11T03:37:32.876Z,5.24
2019-02-11T03:38:32.852Z,5.38
2019-02-11T03:39:32.834Z,5.22
2019-02-11T03:40:32.831Z,5.35
2019-02-11T03:41:32.791Z,5.39
2019-02-11T03:42:32.767Z,5.38
2019-02-11T03:43:32.754Z,5.31
2019-02-11T03:44:32.723Z,5.33
2019-02-11T03:45:32.696Z,5.35
2019-02-11T03:46:32.694Z,5.24
2019-02-11T03:47:32.656Z,5.27
2019-02-11T03:48:32.644Z,5.30
2019-02-11T03:49:32.616Z,5.39
2019-02-11T03:50:32.590Z,5.30
2019-02-11T03:51:32.590Z,5.36
2019-02-11T03:52:33.581Z,5.39
2019-02-11T03:53:32.566Z,5.36
2019-02-11T03:54:32.496Z,5.43
2019-02-11T03:55:32.478Z,5.38
2019-02-11T03:56:32.457Z,5.36
2019-02-11T03:57:32.446Z,5.35
2019-02-11T03:58:34.082Z,5.36
2019-02-11T03:59:32.402Z,5.40
2019-02-11T04:00:32.363Z,5.49
2019-02-11T04:01:32.344Z,5.48
2019-02-11T04:02:32.338Z,5.39
2019-02-11T04:03:32.304Z,5.49
2019-02-11T04:04:32.276Z,5.48
2019-02-11T04:05:32.255Z,5.49
2019-02-11T04:06:32.232Z,5.54
2019-02-11T04:07:32.208Z,5.36
2019-02-11T04:08:32.204Z,5.35
2019-02-11T04:09:32.166Z,5.39
2019-02-11T04:10:32.143Z,5.43
2019-02-11T04:11:32.120Z,5.48
2019-02-11T04:12:32.098Z,5.48
2019-02-11T04:13:32.585Z,5.45
2019-02-11T04:14:32.054Z,5.56
2019-02-11T04:15:32.584Z,5.56
2019-02-11T04:16:32.010Z,5.54
2019-02-11T04:17:32.004Z,5.51
2019-02-11T04:18:31.961Z,5.53
2019-02-11T04:19:31.942Z,5.58
2019-02-11T04:20:31.918Z,5.60
2019-02-11T04:21:31.911Z,5.56
2019-02-11T04:22:31.891Z,5.67
2019-02-11T04:23:31.877Z,5.60
2019-02-11T04:24:31.831Z,5.53
2019-02-11T04:25:31.808Z,5.57
2019-02-11T04:26:31.797Z,5.56
2019-02-11T04:27:31.771Z,5.40
2019-02-11T04:28:31.746Z,5.33
2019-02-11T04:29:31.733Z,5.35
2019-02-11T04:30:31.700Z,5.43
2019-02-11T04:31:31.679Z,5.33
2019-02-11T04:32:31.660Z,5.39
2019-02-11T04:33:31.647Z,5.36
2019-02-11T04:34:31.689Z,5.36
2019-02-11T04:35:31.596Z,5.35
2019-02-11T04:36:32.086Z,5.36
2019-02-11T04:37:31.563Z,5.38
2019-02-11T04:38:31.518Z,5.35
2019-02-11T04:39:31.517Z,5.33
2019-02-11T04:40:31.475Z,5.33
2019-02-11T04:41:31.455Z,5.28
2019-02-11T04:42:31.435Z,5.35
2019-02-11T04:43:31.410Z,5.40
2019-02-11T04:44:34.103Z,5.38
2019-02-11T04:45:31.381Z,5.39
2019-02-11T04:46:31.342Z,5.24
2019-02-11T04:47:31.322Z,5.36
2019-02-11T04:48:31.295Z,5.30
2019-02-11T04:49:31.273Z,5.31
2019-02-11T04:50:31.270Z,5.35
2019-02-11T04:51:31.232Z,5.43
2019-02-11T04:52:31.210Z,5.28
2019-02-11T04:53:31.188Z,5.28
2019-02-11T04:54:31.169Z,5.31
2019-02-11T04:55:31.142Z,5.30
2019-02-11T04:56:31.140Z,5.30
2019-02-11T04:57:31.092Z,5.30
2019-02-11T04:58:31.070Z,5.17
2019-02-11T04:59:31.051Z,5.22
2019-02-11T05:00:31.028Z,5.20
2019-02-11T05:01:31.006Z,5.24
2019-02-11T05:02:31.009Z,5.17
2019-02-11T05:03:30.960Z,5.25
2019-02-11T05:04:30.939Z,5.31
2019-02-11T05:05:30.913Z,5.38
2019-02-11T05:06:30.917Z,5.28
2019-02-11T05:07:30.886Z,5.25
2019-02-11T05:08:30.865Z,5.25
2019-02-11T05:09:30.827Z,5.22
2019-02-11T05:10:30.810Z,5.22
2019-02-11T05:11:30.782Z,5.18
2019-02-11T05:12:30.774Z,5.13
2019-02-11T05:13:30.756Z,5.20
2019-02-11T05:14:30.724Z,5.10
2019-02-11T05:15:30.695Z,5.03
2019-02-11T05:16:30.670Z,5.07
2019-02-11T05:17:30.649Z,5.06
2019-02-11T05:18:30.646Z,5.03
2019-02-11T05:19:30.606Z,5.00
2019-02-11T05:20:30.582Z,5.00
2019-02-11T05:21:30.568Z,5.06
2019-02-11T05:22:30.539Z,5.00
2019-02-11T05:23:30.533Z,5.04
2019-02-11T05:24:30.495Z,4.94
2019-02-11T05:25:30.491Z,5.00
2019-02-11T05:26:30.447Z,5.09
2019-02-11T05:27:30.429Z,4.97
2019-02-11T05:28:30.402Z,4.94
2019-02-11T05:29:30.386Z,4.97
2019-02-11T05:30:30.372Z,4.92
2019-02-11T05:31:32.663Z,4.94
2019-02-11T05:32:30.312Z,4.99
2019-02-11T05:33:30.309Z,4.94
2019-02-11T05:34:30.285Z,4.84
2019-02-11T05:35:30.260Z,4.82
2019-02-11T05:36:30.223Z,4.89
2019-02-11T05:37:30.217Z,4.82
2019-02-11T05:38:30.193Z,4.86
2019-02-11T05:39:30.155Z,4.86
2019-02-11T05:40:30.130Z,4.85
2019-02-11T05:41:30.115Z,4.84
2019-02-11T05:42:30.100Z,4.85
2019-02-11T05:43:30.080Z,4.80
2019-02-11T05:44:30.043Z,4.72
2019-02-11T05:45:30.018Z,4.77
2019-02-11T05:46:29.992Z,4.72
2019-02-11T05:47:29.980Z,4.65
2019-02-11T05:48:29.972Z,4.66
2019-02-11T05:49:29.947Z,4.82
2019-02-11T05:50:29.902Z,4.73
2019-02-11T05:51:29.886Z,4.75
2019-02-11T05:52:29.857Z,4.78
2019-02-11T05:53:29.842Z,4.82
2019-02-11T05:54:29.832Z,4.82
2019-02-11T05:55:29.792Z,4.80
2019-02-11T05:56:29.769Z,4.69
2019-02-11T05:57:29.768Z,4.70
2019-02-11T05:58:29.743Z,4.67
2019-02-11T05:59:29.701Z,4.73
2019-02-11T06:00:29.679Z,4.65
2019-02-11T06:01:29.656Z,4.73
2019-02-11T06:02:29.634Z,4.73
2019-02-11T06:03:30.595Z,4.69
2019-02-11T06:04:29.729Z,4.72
2019-02-11T06:05:29.566Z,4.72
2019-02-11T06:06:29.551Z,4.70
2019-02-11T06:07:29.522Z,4.67
2019-02-11T06:08:29.518Z,4.67
2019-02-11T06:09:30.103Z,4.82
2019-02-11T06:10:29.461Z,4.69
2019-02-11T06:11:29.435Z,4.72
2019-02-11T06:12:29.418Z,4.72
2019-02-11T06:13:29.390Z,4.69
2019-02-11T06:14:29.390Z,4.78
2019-02-11T06:15:29.344Z,4.66
2019-02-11T06:16:29.316Z,4.85
2019-02-11T06:17:29.308Z,4.82
2019-02-11T06:18:29.278Z,4.85
2019-02-11T06:19:29.286Z,4.85
2019-02-11T06:20:29.239Z,4.82
2019-02-11T06:21:29.205Z,4.82
2019-02-11T06:22:29.187Z,4.80
2019-02-11T06:23:29.720Z,4.75
2019-02-11T06:24:29.140Z,4.82
2019-02-11T06:25:29.142Z,4.91
2019-02-11T06:26:29.090Z,4.89
2019-02-11T06:27:29.076Z,4.85
2019-02-11T06:28:29.057Z,4.85
2019-02-11T06:29:29.031Z,4.91
2019-02-11T06:30:29.042Z,4.86
2019-02-11T06:31:28.984Z,4.84
2019-02-11T06:32:28.959Z,4.84
2019-02-11T06:33:28.942Z,4.86
2019-02-11T06:34:28.916Z,4.91
2019-02-11T06:35:28.920Z,4.99
2019-02-11T06:36:28.869Z,5.06
2019-02-11T06:37:28.851Z,5.04
2019-02-11T06:38:28.826Z,4.99
2019-02-11T06:39:28.804Z,4.94
2019-02-11T06:40:28.783Z,4.89
2019-02-11T06:41:28.786Z,4.97
2019-02-11T06:42:28.736Z,4.94
2019-02-11T06:43:28.718Z,5.02
2019-02-11T06:44:28.694Z,5.04
2019-02-11T06:45:28.671Z,5.07
2019-02-11T06:46:29.292Z,5.12
2019-02-11T06:47:28.646Z,5.10
2019-02-11T06:48:28.600Z,5.21
2019-02-11T06:49:28.580Z,5.21
2019-02-11T06:50:30.100Z,5.27
2019-02-11T06:51:28.533Z,5.27
2019-02-11T06:52:28.534Z,5.17
2019-02-11T06:53:28.489Z,5.21
2019-02-11T06:54:28.491Z,5.27
2019-02-11T06:55:28.441Z,5.22
2019-02-11T06:56:28.425Z,5.35
2019-02-11T06:57:28.417Z,5.27
2019-02-11T06:58:28.384Z,5.21
2019-02-11T06:59:28.372Z,5.38
2019-02-11T07:00:28.329Z,5.24
2019-02-11T07:01:28.311Z,5.28
2019-02-11T07:02:28.288Z,5.33
2019-02-11T07:03:28.292Z,5.31
2019-02-11T07:04:28.239Z,5.21
2019-02-11T07:05:28.223Z,5.31
2019-02-11T07:06:28.208Z,5.36
2019-02-11T07:07:28.181Z,5.22
2019-02-11T07:08:28.183Z,5.38
2019-02-11T07:09:28.181Z,5.42
2019-02-11T07:10:28.107Z,5.43
2019-02-11T07:11:28.083Z,5.38
2019-02-11T07:12:28.083Z,5.33
2019-02-11T07:13:28.055Z,5.40
2019-02-11T07:14:28.018Z,5.43
2019-02-11T07:15:27.997Z,5.46
2019-02-11T07:16:27.974Z,5.45
2019-02-11T07:17:28.658Z,5.46
2019-02-11T07:18:27.948Z,5.45
2019-02-11T07:19:27.907Z,5.51
2019-02-11T07:20:27.886Z,5.48
2019-02-11T07:21:28.643Z,5.48
2019-02-11T07:22:27.840Z,5.46
2019-02-11T07:23:27.840Z,5.42
2019-02-11T07:24:27.797Z,5.45
2019-02-11T07:25:27.795Z,5.46
2019-02-11T07:26:27.758Z,5.45
2019-02-11T07:27:27.756Z,5.57
2019-02-11T07:28:27.707Z,5.54
2019-02-11T07:29:27.684Z,5.54
2019-02-11T07:30:27.662Z,5.56
2019-02-11T07:31:27.637Z,5.45
2019-02-11T07:32:27.688Z,5.48
2019-02-11T07:33:27.603Z,5.49
2019-02-11T07:34:27.585Z,5.51
2019-02-11T07:35:27.591Z,5.54
2019-02-11T07:36:27.573Z,5.49
2019-02-11T07:37:27.535Z,5.54
2019-02-11T07:38:27.567Z,5.43
2019-02-11T07:39:27.536Z,5.45
2019-02-11T07:40:27.545Z,5.43
2019-02-11T07:41:27.547Z,5.43
2019-02-11T07:42:27.544Z,5.33
2019-02-11T07:43:27.383Z,5.31
2019-02-11T07:44:28.114Z,5.40
2019-02-11T07:45:30.119Z,5.22
2019-02-11T07:46:27.308Z,5.25
2019-02-11T07:47:27.288Z,5.21
2019-02-11T07:48:27.264Z,5.22
2019-02-11T07:49:27.257Z,5.22
2019-02-11T07:50:27.218Z,5.28
2019-02-11T07:51:27.199Z,5.20
2019-02-11T07:52:27.316Z,5.15
2019-02-11T07:53:27.151Z,5.15
2019-02-11T07:54:27.141Z,5.20
2019-02-11T07:55:27.138Z,5.17
2019-02-11T07:56:27.087Z,5.15
2019-02-11T07:57:27.064Z,5.13
2019-02-11T07:58:27.043Z,5.22
2019-02-11T07:59:27.022Z,5.25
2019-02-11T08:00:27.014Z,5.30
2019-02-11T08:01:26.978Z,5.33
2019-02-11T08:02:26.966Z,5.38
2019-02-11T08:03:26.930Z,5.38
2019-02-11T08:04:26.909Z,5.35
2019-02-11T08:05:26.902Z,5.38
2019-02-11T08:06:26.863Z,5.46
2019-02-11T08:07:26.867Z,5.48
2019-02-11T08:08:26.822Z,5.48
2019-02-11T08:09:26.813Z,5.48
2019-02-11T08:10:26.797Z,5.40
2019-02-11T08:11:26.758Z,5.51
2019-02-11T08:12:26.747Z,5.51
2019-02-11T08:13:26.785Z,5.40
2019-02-11T08:14:29.625Z,5.46
2019-02-11T08:15:26.682Z,5.48
2019-02-11T08:16:27.177Z,5.39
2019-02-11T08:17:26.619Z,5.33
2019-02-11T08:18:26.620Z,5.38
2019-02-11T08:19:27.609Z,5.35
2019-02-11T08:20:26.558Z,5.38
2019-02-11T08:21:26.565Z,5.38
2019-02-11T08:22:27.609Z,5.38
2019-02-11T08:23:26.485Z,5.40
2019-02-11T08:24:26.490Z,5.51
2019-02-11T08:25:26.452Z,5.53
2019-02-11T08:26:26.426Z,5.58
2019-02-11T08:27:28.111Z,5.61
2019-02-11T08:28:26.379Z,5.63
2019-02-11T08:29:26.373Z,5.60
2019-02-11T08:30:26.337Z,5.65
2019-02-11T08:31:26.314Z,5.61
2019-02-11T08:32:26.291Z,5.63
2019-02-11T08:33:26.288Z,5.61
2019-02-11T08:34:26.248Z,5.71
2019-02-11T08:35:26.224Z,5.72
2019-02-11T08:36:26.239Z,5.68
2019-02-11T08:37:27.152Z,5.71
2019-02-11T08:38:26.155Z,5.75
2019-02-11T08:39:26.134Z,5.75
2019-02-11T08:40:26.130Z,5.75
2019-02-11T08:41:27.110Z,5.75
2019-02-11T08:42:26.081Z,5.75
2019-02-11T08:43:26.611Z,5.83
2019-02-11T08:44:26.032Z,5.82
2019-02-11T08:45:27.611Z,5.89
2019-02-11T08:46:27.612Z,5.90
2019-02-11T08:47:25.964Z,5.83
2019-02-11T08:48:25.959Z,5.91
2019-02-11T08:49:26.081Z,5.94
2019-02-11T08:50:26.649Z,5.94
2019-02-11T08:51:26.232Z,5.91
2019-02-11T08:52:25.856Z,5.89
2019-02-11T08:53:25.836Z,5.83
2019-02-11T08:54:25.810Z,5.65
2019-02-11T08:55:26.613Z,5.75
2019-02-11T08:56:25.786Z,5.64
2019-02-11T08:57:25.747Z,5.75
2019-02-11T08:58:25.723Z,5.74
2019-02-11T08:59:25.721Z,5.71
2019-02-11T09:00:25.683Z,5.71
2019-02-11T09:01:28.193Z,5.78
2019-02-11T09:02:25.655Z,5.76
2019-02-11T09:03:25.615Z,5.82
2019-02-11T09:04:25.594Z,5.79
2019-02-11T09:05:25.589Z,5.89
2019-02-11T09:06:26.152Z,5.94
2019-02-11T09:07:25.539Z,5.90
2019-02-11T09:08:25.530Z,5.94
2019-02-11T09:09:25.486Z,5.96
2019-02-11T09:10:25.489Z,6.04
2019-02-11T09:11:25.479Z,6.04
2019-02-11T09:12:25.417Z,6.04
2019-02-11T09:13:25.401Z,6.11
2019-02-11T09:14:25.393Z,6.27
2019-02-11T09:15:25.355Z,6.25
2019-02-11T09:16:25.333Z,6.19
2019-02-11T09:17:25.315Z,6.17
2019-02-11T09:18:25.290Z,6.30
2019-02-11T09:19:25.274Z,6.33
2019-02-11T09:20:26.199Z,6.40
2019-02-11T09:21:25.253Z,6.40
2019-02-11T09:22:25.201Z,6.51
2019-02-11T09:23:25.183Z,6.52
2019-02-11T09:24:25.158Z,6.44
2019-02-11T09:25:25.153Z,6.52
2019-02-11T09:26:25.658Z,6.44
2019-02-11T09:27:25.092Z,6.44
2019-02-11T09:28:25.083Z,6.56
2019-02-11T09:29:25.701Z,6.48
2019-02-11T09:30:25.040Z,6.54
2019-02-11T09:31:25.005Z,6.61
2019-02-11T09:32:25.011Z,6.73
2019-02-11T09:33:25.619Z,6.70
2019-02-11T09:34:25.038Z,6.76
2019-02-11T09:35:24.918Z,6.71
2019-02-11T09:36:25.211Z,6.76
2019-02-11T09:37:24.895Z,6.79
2019-02-11T09:38:24.862Z,6.80
2019-02-11T09:39:24.838Z,6.79
2019-02-11T09:40:26.619Z,6.94
2019-02-11T09:41:24.788Z,6.92
2019-02-11T09:42:24.767Z,6.98
2019-02-11T09:43:25.655Z,7.05
2019-02-11T09:44:29.671Z,6.99
2019-02-11T09:45:24.713Z,6.99
2019-02-11T09:46:24.682Z,7.16
2019-02-11T09:47:24.681Z,7.25
2019-02-11T09:48:24.667Z,7.34
2019-02-11T09:49:24.626Z,7.32
2019-02-11T09:50:24.600Z,7.37
2019-02-11T09:51:24.587Z,7.34
2019-02-11T09:52:24.556Z,7.30
2019-02-11T09:53:24.593Z,7.20
2019-02-11T09:54:24.532Z,7.23
2019-02-11T09:55:24.501Z,7.24
2019-02-11T09:56:25.120Z,7.31
2019-02-11T09:57:24.449Z,7.20
2019-02-11T09:58:25.121Z,7.16
2019-02-11T09:59:24.410Z,7.24
2019-02-11T10:00:24.394Z,7.12
2019-02-11T10:01:24.372Z,7.13
2019-02-11T10:02:24.348Z,7.13
2019-02-11T10:03:24.327Z,7.15
2019-02-11T10:04:24.321Z,7.10
2019-02-11T10:05:24.300Z,7.15
2019-02-11T10:06:24.271Z,7.16
2019-02-11T10:07:24.250Z,7.13
2019-02-11T10:08:25.129Z,7.23
2019-02-11T10:09:24.196Z,7.13
2019-02-11T10:10:25.124Z,7.30
2019-02-11T10:11:24.173Z,7.34
2019-02-11T10:12:24.142Z,7.49
2019-02-11T10:13:24.115Z,7.45
2019-02-11T10:14:24.096Z,7.58
2019-02-11T10:15:24.078Z,7.67
2019-02-11T10:16:24.074Z,7.90
2019-02-11T10:17:29.677Z,7.90
2019-02-11T10:18:24.017Z,8.00
2019-02-11T10:19:23.993Z,7.93
2019-02-11T10:20:23.974Z,8.02
2019-02-11T10:21:23.964Z,7.98
2019-02-11T10:22:23.934Z,7.89
2019-02-11T10:23:23.916Z,8.04
2019-02-11T10:24:23.892Z,8.04
2019-02-11T10:25:23.887Z,8.01
2019-02-11T10:26:23.865Z,8.04
2019-02-11T10:27:23.845Z,8.00
2019-02-11T10:28:23.833Z,7.98
2019-02-11T10:29:23.789Z,7.95
2019-02-11T10:30:23.773Z,8.04
2019-02-11T10:31:23.779Z,8.12
2019-02-11T10:32:24.242Z,8.18
2019-02-11T10:33:23.709Z,8.22
2019-02-11T10:34:23.688Z,8.20
2019-02-11T10:35:23.670Z,8.26
2019-02-11T10:36:23.650Z,8.36
2019-02-11T10:37:23.629Z,8.30
2019-02-11T10:38:23.624Z,8.37
2019-02-11T10:39:23.599Z,8.22
2019-02-11T10:40:24.167Z,8.38
2019-02-11T10:41:23.557Z,8.28
2019-02-11T10:42:23.526Z,8.34
2019-02-11T10:43:23.573Z,8.20
2019-02-11T10:44:23.496Z,8.25
2019-02-11T10:45:23.472Z,8.20
2019-02-11T10:46:23.471Z,8.00
2019-02-11T10:47:23.438Z,8.05
2019-02-11T10:48:25.419Z,7.98
2019-02-11T10:49:23.395Z,8.05
2019-02-11T10:50:23.374Z,8.04
2019-02-11T10:51:23.351Z,8.15
2019-02-11T10:52:23.339Z,8.28
2019-02-11T10:53:24.179Z,8.40
2019-02-11T10:54:23.313Z,8.56
2019-02-11T10:55:23.281Z,8.59
2019-02-11T10:56:23.265Z,8.48
2019-02-11T10:57:23.236Z,8.52
2019-02-11T10:58:23.216Z,8.43
2019-02-11T10:59:23.212Z,8.40
2019-02-11T11:00:24.164Z,8.30
2019-02-11T11:01:23.844Z,8.23
2019-02-11T11:02:23.139Z,8.36
2019-02-11T11:03:23.137Z,8.34
2019-02-11T11:04:23.101Z,8.38
2019-02-11T11:05:23.102Z,8.38
2019-02-11T11:06:23.087Z,8.40
2019-02-11T11:07:23.048Z,8.44
2019-02-11T11:08:23.023Z,8.41
2019-02-11T11:09:23.014Z,8.52
2019-02-11T11:10:22.978Z,8.45
2019-02-11T11:11:22.983Z,8.25
2019-02-11T11:12:22.948Z,8.34
2019-02-11T11:13:22.947Z,8.20
2019-02-11T11:14:22.901Z,8.37
2019-02-11T11:15:22.893Z,8.34
2019-02-11T11:16:29.473Z,8.37
2019-02-11T11:17:22.873Z,8.44
2019-02-11T11:18:22.826Z,8.36
2019-02-11T11:19:22.817Z,8.38
2019-02-11T11:20:22.782Z,8.38
2019-02-11T11:21:22.798Z,8.37
2019-02-11T11:22:22.748Z,8.40
2019-02-11T11:23:22.743Z,8.36
2019-02-11T11:24:23.214Z,8.37
2019-02-11T11:25:22.688Z,8.30
2019-02-11T11:26:22.668Z,8.37
2019-02-11T11:27:22.664Z,8.36
2019-02-11T11:28:22.626Z,8.36
2019-02-11T11:29:22.607Z,8.48
2019-02-11T11:30:23.137Z,8.77
2019-02-11T11:31:22.571Z,8.99
2019-02-11T11:32:22.550Z,9.02
2019-02-11T11:33:23.172Z,8.79
2019-02-11T11:34:22.506Z,8.73
2019-02-11T11:35:22.494Z,8.58
2019-02-11T11:36:22.487Z,8.50
2019-02-11T11:37:22.453Z,8.37
2019-02-11T11:38:22.432Z,8.26
2019-02-11T11:39:22.417Z,8.23
2019-02-11T11:40:22.395Z,8.10
2019-02-11T11:41:22.378Z,7.97
2019-02-11T11:42:22.372Z,7.75
2019-02-11T11:43:22.347Z,7.60
2019-02-11T11:44:22.321Z,7.49
2019-02-11T11:45:22.316Z,7.49
2019-02-11T11:46:22.274Z,7.52
2019-02-11T11:47:22.253Z,7.46
2019-02-11T11:48:22.256Z,7.37
2019-02-11T11:49:22.222Z,7.31
2019-02-11T11:50:22.215Z,7.32
2019-02-11T11:51:22.178Z,7.21
2019-02-11T11:52:22.153Z,7.32
2019-02-11T11:53:22.726Z,7.30
2019-02-11T11:54:22.133Z,7.35
2019-02-11T11:55:22.112Z,7.25
2019-02-11T11:56:22.074Z,7.31
2019-02-11T11:57:22.059Z,7.31
2019-02-11T11:58:22.038Z,7.31
2019-02-11T11:59:22.037Z,7.31
2019-02-11T12:00:22.010Z,7.31
2019-02-11T12:01:21.972Z,7.32
2019-02-11T12:02:21.952Z,7.24
2019-02-11T12:03:21.927Z,7.21
2019-02-11T12:04:21.918Z,7.23
2019-02-11T12:05:21.919Z,7.10
2019-02-11T12:06:25.230Z,7.10
2019-02-11T12:07:21.852Z,7.20
2019-02-11T12:08:22.720Z,7.25
2019-02-11T12:09:21.907Z,7.32
2019-02-11T12:10:21.786Z,7.37
2019-02-11T12:11:21.793Z,7.40
2019-02-11T12:12:21.765Z,7.42
2019-02-11T12:15:04.122Z,7.45
2019-02-11T12:16:04.106Z,7.46
2019-02-11T12:17:04.112Z,7.42
2019-02-11T12:18:04.676Z,7.50
2019-02-11T12:19:04.045Z,7.50
2019-02-11T12:20:04.011Z,7.60
2019-02-11T12:21:04.023Z,7.75
2019-02-11T12:22:03.981Z,7.69
2019-02-11T12:23:03.964Z,7.83
2019-02-11T12:24:03.929Z,7.85
2019-02-11T12:25:03.910Z,7.90
2019-02-11T12:26:04.679Z,7.95
2019-02-11T12:27:03.880Z,7.97
2019-02-11T12:28:03.895Z,8.01
2019-02-11T12:29:03.829Z,8.08
2019-02-11T12:30:03.813Z,8.28
2019-02-11T12:31:03.807Z,8.38
2019-02-11T12:32:03.789Z,8.47
2019-02-11T12:33:03.914Z,8.61
2019-02-11T12:34:03.750Z,8.81
2019-02-11T12:35:03.719Z,9.15
2019-02-11T12:36:03.710Z,9.75
2019-02-11T12:37:03.702Z,10.52
2019-02-11T12:38:03.655Z,10.84
2019-02-11T12:39:03.642Z,10.89
2019-02-11T12:40:03.660Z,10.36
2019-02-11T12:41:03.623Z,9.91
2019-02-11T12:42:03.585Z,9.39
2019-02-11T12:43:03.593Z,9.23
2019-02-11T12:44:03.561Z,9.10
2019-02-11T12:45:03.539Z,8.95
2019-02-11T12:46:03.503Z,8.94
2019-02-11T12:47:13.944Z,8.73
2019-02-11T12:48:03.485Z,8.70
2019-02-11T12:49:03.448Z,8.58
2019-02-11T12:50:03.426Z,8.44
2019-02-11T12:51:03.408Z,8.38
2019-02-11T12:52:03.381Z,8.34
2019-02-11T12:53:04.155Z,8.20
2019-02-11T12:54:03.361Z,8.04
2019-02-11T12:55:07.428Z,8.02
2019-02-11T12:56:04.162Z,7.86
2019-02-11T12:57:03.293Z,7.87
2019-02-11T12:58:03.304Z,7.68
2019-02-11T12:59:03.270Z,7.60
2019-02-11T13:00:03.246Z,7.69
2019-02-11T13:01:03.239Z,7.52
2019-02-11T13:02:03.223Z,7.12
2019-02-11T13:03:03.178Z,6.49
2019-02-11T13:04:03.159Z,5.76
2019-02-11T13:05:03.135Z,5.49
2019-02-11T13:06:03.126Z,5.54
2019-02-11T13:07:03.096Z,5.61
2019-02-11T13:08:03.071Z,5.71
2019-02-11T13:09:03.053Z,5.68
2019-02-11T13:10:03.036Z,5.89
2019-02-11T13:11:03.029Z,6.00
2019-02-11T13:12:03.005Z,6.11
2019-02-11T13:13:06.272Z,6.21
2019-02-11T13:14:02.962Z,6.51
2019-02-11T13:15:02.955Z,7.05
2019-02-11T13:16:03.616Z,7.48
2019-02-11T13:17:15.133Z,7.58
2019-02-11T13:18:02.977Z,7.82
2019-02-11T13:19:04.665Z,7.97
2019-02-11T13:20:08.404Z,8.02